Dalmatia, PA (17017)

3:50 PM EDT on August 29, 2016 (GMT -0400)
Upper Paxton Township | Change Station
CLOSE
Current Station
Personal Weather Station
Location: Millersburg, PA
Elevation: 531 ft
Nearby Weather Stations

Elev 531 ft 40.57 °N, 76.96 °W | Updated 2 seconds ago

Clear
Clear
90.3 °F
Feels Like 89 °F
N
1.1
Wind Variable Wind from NNE
Gusts 2.5 mph

Today
High -- | Low -- °F
--% Chance of Precip.
Yesterday
High -- | Low -- °F
Precip. -- in
6:32 AM 7:43 PM
Waning Crescent, 7% visible
Pressure 30.15 in
Visibility 10.0 miles
Clouds Clear
Heat Index 89 °F
Dew Point 56 °F
Humidity 31%
Rainfall 0.00 in
Snow Depth Not available.
UV 2.0 out of 12
Pollen 10.20 out of 12
Air Quality Not available.
Flu Activity Not available.
METAR KSEG 291853Z AUTO VRB04KT 10SM CLR 31/17 A3016 RMK AO2 SLP209 T03060172

More Conditions Fewer Conditions

Pressure 30.15 in
Visibility 10.0 miles
Clouds Clear
Heat Index 89 °F
Dew Point 56 °F
Humidity 31%
Rainfall 0.00 in
Snow Depth Not available.
UV 2.0 out of 12
Pollen 10.20 out of 12
Air Quality Not available.
Flu Activity Not available.
METAR KSEG 291853Z AUTO VRB04KT 10SM CLR 31/17 A3016 RMK AO2 SLP209 T03060172

More Conditions Fewer Conditions

10-Day Weather Forecast

Almanac

Astronomy

Aug. 29, 2016 Rise Set
Actual Time 6:32 AM EDT 7:43 PM EDT
Civil Twilight 6:03 AM EDT 8:11 PM EDT
Nautical Twilight 5:30 AM EDT 8:45 PM EDT
Astronomical Twilight 4:54 AM EDT 9:20 PM EDT
Moon 3:40 AM EDT 6:04 PM EDT
Length of Visible Light 14h 07m
Length of Day
13h 11m
Tomorrow will be 2m 33s shorter.
Waning Crescent, 7% of the Moon is Illuminated
Today
Waning Crescent
Sep 1
New
Sep 9
First Quarter
Sep 16
Full
Sep 23
Last Quarter

Today's Extremes

State Highs State Lows

Community

WunderPhotos

Upload Photos

1,935,642 photos uploaded!

Nearby

Snow Depth

Station Depth Elevation
No new snow has been reported.

Earthquake Activity

City Distance Mag. Time & Date
No recent earthquake activity has been reported nearby.
Minimum magnitude displayed is 2.5.

Coastal Water Temperatures

Place Temperature
No Stations Reporting

Nearby Weather Stations